createdAt,value
2023-01-09T00:02:04.909Z,7.34
2023-01-09T00:04:33.907Z,7.33
2023-01-09T00:07:02.674Z,7.31
2023-01-09T00:09:31.437Z,7.32
2023-01-09T00:12:00.097Z,7.31
2023-01-09T00:14:28.669Z,7.31
2023-01-09T00:16:58.927Z,7.28
2023-01-09T00:19:27.706Z,7.30
2023-01-09T00:21:56.286Z,7.27
2023-01-09T00:24:24.961Z,7.27
2023-01-09T00:26:53.538Z,7.27
2023-01-09T00:29:22.437Z,7.27
2023-01-09T00:31:51.053Z,7.24
2023-01-09T00:34:21.122Z,7.26
2023-01-09T00:36:54.988Z,7.24
2023-01-09T00:39:24.021Z,7.27
2023-01-09T00:41:54.939Z,7.20
2023-01-09T00:44:26.088Z,7.18
2023-01-09T00:46:58.508Z,7.20
2023-01-09T00:49:30.752Z,7.22
2023-01-09T00:51:59.499Z,7.21
2023-01-09T00:54:30.630Z,7.27
2023-01-09T00:56:59.644Z,7.24
2023-01-09T00:59:29.255Z,7.19
2023-01-09T01:01:58.073Z,7.18
2023-01-09T01:04:45.749Z,7.22
2023-01-09T01:07:32.369Z,7.21
2023-01-09T01:10:01.015Z,7.22
2023-01-09T01:12:29.765Z,7.22
2023-01-09T01:14:58.403Z,7.27
2023-01-09T01:17:27.026Z,7.25
2023-01-09T01:19:57.365Z,7.28
2023-01-09T01:22:25.912Z,7.27
2023-01-09T01:24:54.812Z,7.28
2023-01-09T01:27:23.431Z,7.26
2023-01-09T01:29:52.346Z,7.28
2023-01-09T01:32:21.072Z,7.28
2023-01-09T01:34:49.680Z,7.33
2023-01-09T01:37:21.806Z,7.35
2023-01-09T01:39:50.362Z,7.32
2023-01-09T01:42:18.999Z,7.33
2023-01-09T01:45:09.572Z,7.34
2023-01-09T01:47:50.121Z,7.36
2023-01-09T01:50:25.432Z,7.35
2023-01-09T01:53:01.854Z,7.38
2023-01-09T01:55:30.787Z,7.42
2023-01-09T01:58:01.986Z,7.41
2023-01-09T02:00:32.641Z,7.38
2023-01-09T02:03:02.163Z,7.42
2023-01-09T02:05:31.035Z,7.41
2023-01-09T02:08:01.010Z,7.39
2023-01-09T02:10:29.825Z,7.37
2023-01-09T02:12:58.485Z,7.39
2023-01-09T02:15:27.862Z,7.32
2023-01-09T02:18:16.889Z,7.30
2023-01-09T02:20:53.741Z,7.31
2023-01-09T02:23:54.503Z,7.34
2023-01-09T02:26:37.640Z,7.35
2023-01-09T02:29:46.785Z,7.33
2023-01-09T02:32:25.594Z,7.28
2023-01-09T02:35:00.492Z,7.33
2023-01-09T02:37:30.649Z,7.29
2023-01-09T02:40:08.918Z,7.34
2023-01-09T02:42:38.251Z,7.28
2023-01-09T02:45:07.466Z,7.30
2023-01-09T02:47:40.293Z,7.30
2023-01-09T02:50:11.820Z,7.26
2023-01-09T02:53:04.458Z,7.27
2023-01-09T02:55:48.291Z,7.28
2023-01-09T02:58:24.842Z,7.26
2023-01-09T03:00:59.438Z,7.27
2023-01-09T03:03:35.692Z,7.22
2023-01-09T03:06:08.229Z,7.30
2023-01-09T03:08:40.852Z,7.26
2023-01-09T03:11:11.833Z,7.20
2023-01-09T03:13:44.768Z,7.22
2023-01-09T03:16:15.961Z,7.24
2023-01-09T03:18:46.106Z,7.28
2023-01-09T03:21:15.406Z,7.30
2023-01-09T03:23:48.938Z,7.31
2023-01-09T03:26:17.748Z,7.29
2023-01-09T03:28:47.236Z,7.25
2023-01-09T03:31:16.262Z,7.21
2023-01-09T03:33:46.291Z,7.20
2023-01-09T03:36:15.693Z,7.16
2023-01-09T03:38:44.329Z,7.16
2023-01-09T03:41:13.097Z,7.15
2023-01-09T03:43:41.782Z,7.11
2023-01-09T03:46:10.519Z,7.09
2023-01-09T03:48:39.361Z,7.05
2023-01-09T03:51:09.595Z,7.06
2023-01-09T03:53:38.610Z,7.05
2023-01-09T03:56:07.744Z,6.99
2023-01-09T03:58:36.549Z,6.99
2023-01-09T04:01:09.395Z,6.93
2023-01-09T04:03:38.280Z,6.84
2023-01-09T04:06:08.712Z,6.81
2023-01-09T04:08:37.382Z,6.81
2023-01-09T04:11:06.369Z,6.79
2023-01-09T04:13:35.131Z,6.85
2023-01-09T04:16:03.864Z,6.96
2023-01-09T04:18:32.823Z,6.90
2023-01-09T04:21:01.528Z,6.79
2023-01-09T04:23:31.555Z,6.83
2023-01-09T04:26:00.320Z,6.74
2023-01-09T04:28:29.038Z,6.67
2023-01-09T04:30:57.647Z,6.47
2023-01-09T04:33:26.270Z,6.38
2023-01-09T04:35:54.893Z,6.29
2023-01-09T04:38:23.585Z,6.29
2023-01-09T04:40:53.556Z,6.19
2023-01-09T04:43:22.294Z,6.22
2023-01-09T04:45:50.950Z,6.12
2023-01-09T04:48:19.773Z,6.14
2023-01-09T04:50:48.439Z,6.20
2023-01-09T04:53:17.069Z,6.13
2023-01-09T04:55:45.658Z,6.04
2023-01-09T04:58:15.650Z,6.09
2023-01-09T05:00:44.400Z,6.05
2023-01-09T05:03:13.125Z,5.98
2023-01-09T05:05:41.817Z,5.98
2023-01-09T05:08:10.399Z,5.98
2023-01-09T05:10:39.039Z,5.92
2023-01-09T05:13:07.804Z,5.90
2023-01-09T05:15:37.734Z,5.94
2023-01-09T05:18:06.509Z,5.90
2023-01-09T05:20:35.177Z,5.92
2023-01-09T05:23:03.723Z,5.92
2023-01-09T05:25:32.618Z,5.91
2023-01-09T05:28:01.463Z,5.94
2023-01-09T05:30:30.183Z,5.92
2023-01-09T05:33:00.201Z,5.96
2023-01-09T05:35:28.855Z,5.92
2023-01-09T05:37:57.492Z,5.86
2023-01-09T05:40:29.294Z,5.88
2023-01-09T05:43:01.084Z,5.94
2023-01-09T05:45:29.726Z,5.94
2023-01-09T05:47:59.811Z,5.88
2023-01-09T05:50:28.667Z,5.86
2023-01-09T05:52:57.432Z,5.85
2023-01-09T05:55:26.845Z,5.88
2023-01-09T05:57:55.540Z,5.88
2023-01-09T06:00:24.575Z,5.85
2023-01-09T06:02:53.217Z,5.82
2023-01-09T06:05:23.195Z,5.82
2023-01-09T06:07:51.846Z,5.76
2023-01-09T06:10:20.627Z,5.73
2023-01-09T06:12:50.535Z,5.71
2023-01-09T06:15:20.582Z,5.65
2023-01-09T06:17:49.476Z,5.72
2023-01-09T06:20:18.289Z,5.69
2023-01-09T06:22:51.922Z,5.64
2023-01-09T06:25:20.624Z,5.57
2023-01-09T06:27:49.744Z,5.61
2023-01-09T06:30:19.180Z,5.56
2023-01-09T06:32:50.151Z,5.55
2023-01-09T06:35:20.483Z,5.54
2023-01-09T06:37:50.796Z,5.54
2023-01-09T06:40:21.100Z,5.55
2023-01-09T06:42:50.435Z,5.55
2023-01-09T06:45:19.186Z,5.50
2023-01-09T06:47:48.307Z,5.46
2023-01-09T06:50:17.402Z,5.44
2023-01-09T06:52:46.102Z,5.39
2023-01-09T06:55:16.734Z,5.38
2023-01-09T06:57:45.626Z,5.38
2023-01-09T07:00:14.967Z,5.44
2023-01-09T07:02:43.520Z,5.37
2023-01-09T07:05:12.999Z,5.37
2023-01-09T07:07:42.127Z,5.33
2023-01-09T07:10:12.205Z,5.31
2023-01-09T07:12:42.181Z,5.29
2023-01-09T07:15:11.576Z,5.27
2023-01-09T07:17:40.384Z,5.26
2023-01-09T07:20:10.108Z,5.25
2023-01-09T07:22:38.893Z,5.26
2023-01-09T07:25:08.323Z,5.25
2023-01-09T07:27:37.045Z,5.25
2023-01-09T07:30:08.368Z,5.21
2023-01-09T07:32:38.478Z,5.25
2023-01-09T07:35:08.491Z,5.23
2023-01-09T07:37:37.121Z,5.25
2023-01-09T07:40:06.601Z,5.23
2023-01-09T07:42:35.342Z,5.24
2023-01-09T07:45:03.982Z,5.24
2023-01-09T07:47:33.984Z,5.23
2023-01-09T07:50:02.702Z,5.20
2023-01-09T07:52:31.265Z,5.20
2023-01-09T07:55:00.113Z,5.24
2023-01-09T07:57:29.829Z,5.18
2023-01-09T08:00:00.530Z,5.25
2023-01-09T08:02:29.179Z,5.24
2023-01-09T08:04:59.179Z,5.36
2023-01-09T08:07:28.017Z,5.37
2023-01-09T08:09:56.688Z,5.32
2023-01-09T08:12:25.333Z,5.33
2023-01-09T08:14:53.968Z,5.33
2023-01-09T08:17:22.582Z,5.31
2023-01-09T08:19:51.173Z,5.38
2023-01-09T08:22:21.396Z,5.39
2023-01-09T08:24:50.019Z,5.46
2023-01-09T08:27:18.651Z,5.52
2023-01-09T08:29:47.379Z,5.55
2023-01-09T08:32:16.190Z,5.58
2023-01-09T08:34:44.895Z,5.57
2023-01-09T08:37:13.732Z,5.59
2023-01-09T08:39:43.834Z,5.54
2023-01-09T08:42:30.294Z,5.55
2023-01-09T08:45:16.332Z,5.61
2023-01-09T08:47:45.011Z,5.59
2023-01-09T08:50:13.654Z,5.58
2023-01-09T08:52:42.227Z,5.63
2023-01-09T08:55:12.506Z,5.64
2023-01-09T08:57:48.182Z,5.66
2023-01-09T09:00:17.742Z,5.70
2023-01-09T09:02:46.507Z,5.75
2023-01-09T09:05:15.419Z,5.74
2023-01-09T09:07:44.055Z,5.75
2023-01-09T09:10:14.288Z,5.78
2023-01-09T09:12:43.039Z,5.79
2023-01-09T09:15:16.487Z,5.81
2023-01-09T09:17:45.689Z,5.91
2023-01-09T09:20:14.363Z,5.91
2023-01-09T09:22:43.391Z,5.93
2023-01-09T09:25:13.524Z,5.98
2023-01-09T09:27:42.332Z,5.97
2023-01-09T09:30:14.971Z,6.00
2023-01-09T09:32:43.718Z,6.02
2023-01-09T09:35:12.837Z,6.10
2023-01-09T09:37:41.841Z,6.18
2023-01-09T09:40:21.602Z,6.15
2023-01-09T09:43:30.251Z,6.23
2023-01-09T09:46:06.055Z,6.32
2023-01-09T09:48:38.196Z,6.35
2023-01-09T09:51:28.102Z,6.38
2023-01-09T09:54:00.563Z,6.39
2023-01-09T09:56:33.505Z,6.42
2023-01-09T09:59:04.625Z,6.42
2023-01-09T10:01:39.519Z,6.49
2023-01-09T10:04:12.772Z,6.42
2023-01-09T10:06:43.689Z,6.52
2023-01-09T10:09:21.627Z,6.56
2023-01-09T10:11:56.961Z,6.51
2023-01-09T10:14:26.066Z,6.54
2023-01-09T10:17:17.279Z,6.58
2023-01-09T10:19:56.815Z,6.56
2023-01-09T10:22:30.954Z,6.63
2023-01-09T10:25:08.021Z,6.64
2023-01-09T10:28:11.028Z,6.72
2023-01-09T10:30:44.437Z,6.74
2023-01-09T10:33:31.804Z,6.79
2023-01-09T10:36:23.731Z,6.79
2023-01-09T10:38:54.322Z,6.74
2023-01-09T10:41:25.960Z,6.78
2023-01-09T10:44:00.662Z,6.74
2023-01-09T10:46:31.827Z,6.71
2023-01-09T10:49:02.348Z,6.72
2023-01-09T10:51:36.115Z,6.69
2023-01-09T10:54:05.901Z,6.72
2023-01-09T10:56:39.640Z,6.69
2023-01-09T10:59:10.885Z,6.80
2023-01-09T11:01:41.067Z,6.87
2023-01-09T11:04:21.702Z,6.90
2023-01-09T11:06:52.302Z,7.06
2023-01-09T11:09:20.876Z,7.01
2023-01-09T11:11:51.415Z,7.04
2023-01-09T11:14:31.160Z,7.01
2023-01-09T11:17:01.239Z,7.01
2023-01-09T11:19:31.087Z,7.04
2023-01-09T11:22:09.614Z,7.06
2023-01-09T11:24:38.285Z,7.14
2023-01-09T11:27:25.153Z,7.16
2023-01-09T11:30:16.623Z,7.11
2023-01-09T11:32:46.689Z,7.14
2023-01-09T11:35:33.708Z,7.13
2023-01-09T11:38:07.168Z,7.14
2023-01-09T11:40:46.179Z,7.21
2023-01-09T11:43:37.694Z,7.29
2023-01-09T11:46:11.613Z,7.46
2023-01-09T11:48:42.199Z,7.61
2023-01-09T11:51:22.566Z,7.81
2023-01-09T11:54:13.419Z,8.15
2023-01-09T11:56:42.546Z,8.39
2023-01-09T11:59:13.673Z,8.46
2023-01-09T12:02:18.180Z,8.37
2023-01-09T12:04:52.837Z,8.31
2023-01-09T12:07:57.710Z,8.36
2023-01-09T12:10:48.874Z,8.34
2023-01-09T12:13:27.512Z,8.45
2023-01-09T12:16:03.094Z,8.69
2023-01-09T12:18:39.037Z,8.73
2023-01-09T12:21:23.315Z,8.52
2023-01-09T12:24:12.220Z,8.42
2023-01-09T12:26:47.241Z,8.33
2023-01-09T12:29:48.348Z,8.24
2023-01-09T12:32:30.006Z,8.09
2023-01-09T12:35:03.394Z,7.98
2023-01-09T12:37:57.177Z,7.95
2023-01-09T12:40:43.716Z,7.96
2023-01-09T12:43:19.863Z,7.85
2023-01-09T12:45:57.405Z,7.79
2023-01-09T12:48:40.357Z,7.87
2023-01-09T12:51:23.390Z,7.72
2023-01-09T12:53:58.874Z,7.69
2023-01-09T12:56:32.349Z,7.66
2023-01-09T12:59:03.089Z,7.62
2023-01-09T13:01:34.069Z,7.53
2023-01-09T13:04:09.158Z,7.48
2023-01-09T13:06:37.769Z,7.54
2023-01-09T13:09:19.595Z,7.55
2023-01-09T13:11:51.346Z,7.48
2023-01-09T13:14:24.762Z,7.52
2023-01-09T13:16:55.740Z,7.59
2023-01-09T13:19:26.723Z,7.53
2023-01-09T13:21:56.538Z,7.62
2023-01-09T13:24:31.535Z,7.67
2023-01-09T13:27:00.283Z,7.72
2023-01-09T13:29:29.833Z,7.76
2023-01-09T13:32:15.013Z,7.91
2023-01-09T13:34:45.313Z,7.78
2023-01-09T13:37:20.798Z,7.60
2023-01-09T13:39:56.573Z,7.63
2023-01-09T13:42:38.944Z,7.59
2023-01-09T13:45:11.562Z,7.66
2023-01-09T13:47:40.010Z,7.59
2023-01-09T13:50:25.239Z,7.66
2023-01-09T13:52:53.731Z,7.51
2023-01-09T13:55:28.813Z,7.46
2023-01-09T13:58:22.514Z,7.34
2023-01-09T14:00:53.155Z,7.31
2023-01-09T14:03:23.055Z,7.24
2023-01-09T14:06:09.649Z,7.23
2023-01-09T14:08:38.230Z,7.27
2023-01-09T14:11:08.433Z,7.23
2023-01-09T14:13:39.795Z,7.34
2023-01-09T14:16:09.048Z,7.46
2023-01-09T14:18:37.981Z,7.57
2023-01-09T14:23:51.466Z,7.49
2023-01-09T14:26:23.431Z,7.31
2023-01-09T14:28:52.230Z,7.21
2023-01-09T14:31:29.866Z,7.21
2023-01-09T14:34:23.954Z,7.12
2023-01-09T14:36:59.727Z,7.34
2023-01-09T14:39:28.460Z,7.50
2023-01-09T14:42:02.493Z,7.52
2023-01-09T14:44:31.333Z,7.50
2023-01-09T14:47:00.528Z,7.50
2023-01-09T14:49:31.679Z,7.45
2023-01-09T14:52:00.697Z,7.49
2023-01-09T14:54:29.895Z,7.42
2023-01-09T14:57:01.152Z,7.55
2023-01-09T14:59:29.781Z,7.57
2023-01-09T15:01:59.017Z,7.48
2023-01-09T15:04:31.533Z,7.41
2023-01-09T15:06:59.933Z,7.21
2023-01-09T15:09:28.811Z,7.16
2023-01-09T15:11:58.236Z,7.15
2023-01-09T15:14:32.535Z,7.17
2023-01-09T15:17:01.133Z,7.19
2023-01-09T15:19:30.132Z,7.16
2023-01-09T15:21:59.955Z,7.13
2023-01-09T15:24:29.699Z,7.13
2023-01-09T15:26:58.701Z,7.05
2023-01-09T15:29:28.700Z,7.04
2023-01-09T15:32:00.012Z,6.95
2023-01-09T15:34:28.632Z,6.92
2023-01-09T15:36:57.244Z,6.87
2023-01-09T15:39:26.517Z,6.85
2023-01-09T15:42:12.626Z,6.90
2023-01-09T15:44:41.524Z,6.90
2023-01-09T15:47:14.803Z,6.90
2023-01-09T15:49:43.334Z,6.98
2023-01-09T15:52:15.081Z,7.05
2023-01-09T15:54:46.044Z,6.88
2023-01-09T15:57:33.128Z,6.89
2023-01-09T16:00:20.445Z,6.75
2023-01-09T16:03:07.695Z,6.42
2023-01-09T16:05:39.985Z,6.37
2023-01-09T16:08:16.377Z,6.40
2023-01-09T16:10:45.160Z,6.38
2023-01-09T16:13:14.379Z,6.35
2023-01-09T16:15:44.153Z,6.36
2023-01-09T16:18:24.087Z,6.30
2023-01-09T16:20:55.595Z,6.15
2023-01-09T16:23:25.040Z,6.10
2023-01-09T16:26:02.501Z,6.06
2023-01-09T16:28:31.261Z,5.99
2023-01-09T16:31:00.134Z,5.93
2023-01-09T16:33:30.448Z,5.89
2023-01-09T16:35:59.487Z,5.92
2023-01-09T16:38:28.281Z,5.87
2023-01-09T16:41:24.065Z,5.88
2023-01-09T16:43:52.688Z,5.86
2023-01-09T16:46:21.618Z,5.85
2023-01-09T16:48:51.588Z,5.81
2023-01-09T16:51:21.656Z,5.77
2023-01-09T16:53:50.398Z,5.79
2023-01-09T16:56:19.955Z,5.71
2023-01-09T16:58:48.780Z,5.75
2023-01-09T17:01:18.201Z,5.76
2023-01-09T17:03:47.877Z,5.76
2023-01-09T17:06:20.037Z,5.77
2023-01-09T17:08:48.735Z,5.77
2023-01-09T17:11:19.868Z,5.79
2023-01-09T17:13:48.615Z,5.78
2023-01-09T17:16:17.751Z,5.75
2023-01-09T17:18:46.406Z,5.75
2023-01-09T17:21:16.111Z,5.70
2023-01-09T17:23:46.071Z,5.63
2023-01-09T17:26:36.115Z,5.64
2023-01-09T17:29:05.111Z,5.59
2023-01-09T17:31:33.670Z,5.57
2023-01-09T17:34:02.373Z,5.55
2023-01-09T17:36:32.302Z,5.57
2023-01-09T17:39:02.437Z,5.51
2023-01-09T17:41:31.954Z,5.46
2023-01-09T17:44:00.794Z,5.47
2023-01-09T17:46:30.278Z,5.44
2023-01-09T17:48:58.955Z,5.37
2023-01-09T17:51:27.518Z,5.36
2023-01-09T17:53:56.081Z,5.32
2023-01-09T17:56:26.655Z,5.31
2023-01-09T17:58:55.261Z,5.35
2023-01-09T18:01:23.825Z,5.31
2023-01-09T18:03:52.525Z,5.28
2023-01-09T18:06:22.268Z,5.33
2023-01-09T18:08:50.836Z,5.33
2023-01-09T18:11:19.977Z,5.29
2023-01-09T18:13:50.434Z,5.27
2023-01-09T18:16:19.999Z,5.26
2023-01-09T18:18:48.508Z,5.34
2023-01-09T18:21:18.294Z,5.29
2023-01-09T18:23:48.798Z,5.23
2023-01-09T18:26:21.484Z,5.24
2023-01-09T18:28:51.903Z,5.23
2023-01-09T18:31:22.822Z,5.18
2023-01-09T18:33:52.843Z,5.14
2023-01-09T18:36:21.995Z,5.08
2023-01-09T18:38:51.247Z,5.03
2023-01-09T18:41:19.858Z,4.99
2023-01-09T18:43:50.761Z,4.92
2023-01-09T18:46:23.862Z,4.93
2023-01-09T18:48:53.014Z,4.92
2023-01-09T18:51:21.948Z,4.91
2023-01-09T18:53:50.523Z,4.91
2023-01-09T18:56:19.343Z,4.94
2023-01-09T18:58:48.205Z,4.86
2023-01-09T19:01:18.142Z,4.90
2023-01-09T19:03:46.672Z,4.88
2023-01-09T19:06:15.840Z,4.83
2023-01-09T19:08:44.643Z,4.80
2023-01-09T19:11:13.121Z,4.83
2023-01-09T19:13:41.604Z,4.80
2023-01-09T19:16:10.826Z,4.82
2023-01-09T19:18:41.103Z,4.76
2023-01-09T19:21:10.367Z,4.90
2023-01-09T19:23:38.875Z,4.91
2023-01-09T19:26:08.799Z,4.83
2023-01-09T19:28:38.237Z,4.76
2023-01-09T19:31:07.130Z,4.74
2023-01-09T19:33:35.918Z,4.73
2023-01-09T19:36:06.119Z,4.75
2023-01-09T19:38:34.774Z,4.74
2023-01-09T19:41:09.072Z,4.75
2023-01-09T19:43:39.829Z,4.70
2023-01-09T19:46:09.570Z,4.66
2023-01-09T19:48:38.043Z,4.71
2023-01-09T19:51:08.884Z,4.68
2023-01-09T19:53:37.554Z,4.65
2023-01-09T19:56:13.065Z,4.63
2023-01-09T19:58:41.706Z,4.63
2023-01-09T20:01:10.679Z,4.60
2023-01-09T20:03:39.438Z,4.63
2023-01-09T20:06:13.893Z,4.58
2023-01-09T20:08:42.617Z,4.61
2023-01-09T20:11:11.574Z,4.58
2023-01-09T20:13:40.172Z,4.56
2023-01-09T20:16:09.019Z,4.52
2023-01-09T20:18:37.575Z,4.52
2023-01-09T20:21:06.447Z,4.53
2023-01-09T20:23:37.507Z,4.54
2023-01-09T20:26:06.129Z,4.52
2023-01-09T20:28:34.673Z,4.48
2023-01-09T20:31:05.694Z,4.45
2023-01-09T20:33:35.023Z,4.48
2023-01-09T20:36:04.793Z,4.46
2023-01-09T20:38:33.348Z,4.48
2023-01-09T20:41:09.861Z,4.49
2023-01-09T20:43:40.035Z,4.49
2023-01-09T20:46:09.372Z,4.46
2023-01-09T20:48:38.291Z,4.47
2023-01-09T20:51:07.388Z,4.44
2023-01-09T20:53:35.906Z,4.41
2023-01-09T20:56:04.842Z,4.37
2023-01-09T20:58:34.757Z,4.37
2023-01-09T21:01:06.243Z,4.40
2023-01-09T21:03:34.823Z,4.43
2023-01-09T21:06:04.983Z,4.40
2023-01-09T21:08:33.629Z,4.35
2023-01-09T21:11:02.402Z,4.40
2023-01-09T21:13:31.038Z,4.37
2023-01-09T21:16:02.735Z,4.38
2023-01-09T21:18:31.513Z,4.45
2023-01-09T21:21:02.772Z,4.42
2023-01-09T21:23:31.447Z,4.42
2023-01-09T21:26:00.547Z,4.43
2023-01-09T21:28:31.431Z,4.45
2023-01-09T21:31:00.050Z,4.42
2023-01-09T21:33:30.078Z,4.44
2023-01-09T21:35:59.138Z,4.41
2023-01-09T21:38:27.919Z,4.44
2023-01-09T21:40:56.319Z,4.43
2023-01-09T21:43:55.020Z,4.45
2023-01-09T21:46:49.581Z,4.44
2023-01-09T21:49:19.697Z,4.43
2023-01-09T21:51:48.399Z,4.45
2023-01-09T21:54:16.956Z,4.49
2023-01-09T21:56:45.821Z,4.48
2023-01-09T21:59:14.362Z,4.48
2023-01-09T22:01:42.908Z,4.46
2023-01-09T22:04:13.522Z,4.50
2023-01-09T22:06:43.418Z,4.47
2023-01-09T22:09:12.140Z,4.46
2023-01-09T22:11:40.727Z,4.48
2023-01-09T22:14:11.027Z,4.47
2023-01-09T22:16:39.698Z,4.48
2023-01-09T22:19:12.837Z,4.47
2023-01-09T22:21:43.378Z,4.48
2023-01-09T22:24:14.340Z,4.48
2023-01-09T22:26:43.417Z,4.47
2023-01-09T22:29:11.936Z,4.50
2023-01-09T22:31:40.816Z,4.49
2023-01-09T22:34:11.279Z,4.47
2023-01-09T22:36:39.882Z,4.45
2023-01-09T22:39:11.525Z,4.45
2023-01-09T22:41:40.255Z,4.47
2023-01-09T22:44:09.998Z,4.47
2023-01-09T22:46:38.629Z,4.49
2023-01-09T22:49:07.188Z,4.46
2023-01-09T22:51:35.748Z,4.46
2023-01-09T22:54:04.467Z,4.46
2023-01-09T22:56:34.419Z,4.47
2023-01-09T22:59:02.920Z,4.44
2023-01-09T23:01:31.408Z,4.44
2023-01-09T23:03:59.920Z,4.54
2023-01-09T23:06:28.363Z,4.57
2023-01-09T23:08:56.809Z,4.65
2023-01-09T23:11:44.328Z,4.66
2023-01-09T23:14:14.270Z,4.60
2023-01-09T23:16:42.836Z,4.74
2023-01-09T23:19:13.665Z,4.78
2023-01-09T23:21:42.166Z,4.65
2023-01-09T23:24:10.983Z,4.54
2023-01-09T23:26:39.518Z,4.53
2023-01-09T23:29:07.982Z,4.56
2023-01-09T23:31:37.819Z,4.54
2023-01-09T23:34:08.021Z,4.56
2023-01-09T23:36:36.721Z,4.53
2023-01-09T23:39:08.881Z,4.54
2023-01-09T23:41:54.975Z,4.54
2023-01-09T23:44:23.500Z,4.48
2023-01-09T23:46:53.457Z,4.46
2023-01-09T23:49:22.124Z,4.45
2023-01-09T23:51:50.710Z,4.46
2023-01-09T23:54:19.167Z,4.45
2023-01-09T23:56:47.700Z,4.42
2023-01-09T23:59:17.867Z,4.35
